sensor_id;sensor_type;location;lat;lon;timestamp;pressure;altitude;pressure_sealevel;temperature;humidity
69306;BME280;56427;51.580;4.656;2023-03-01T00:02:19;103123.53;;;-0.10;100.00
69306;BME280;56427;51.580;4.656;2023-03-01T00:04:44;103125.19;;;-0.09;100.00
69306;BME280;56427;51.580;4.656;2023-03-01T00:07:10;103116.72;;;-0.17;100.00
69306;BME280;56427;51.580;4.656;2023-03-01T00:09:36;103122.69;;;-0.24;100.00
69306;BME280;56427;51.580;4.656;2023-03-01T00:12:02;103117.59;;;-0.30;100.00
69306;BME280;56427;51.580;4.656;2023-03-01T00:14:28;103122.72;;;-0.41;100.00
69306;BME280;56427;51.580;4.656;2023-03-01T00:16:53;103122.69;;;-0.23;100.00
69306;BME280;56427;51.580;4.656;2023-03-01T00:19:20;103126.09;;;-0.47;100.00
69306;BME280;56427;51.580;4.656;2023-03-01T00:21:47;103119.28;;;-0.31;100.00
69306;BME280;56427;51.580;4.656;2023-03-01T00:24:13;103123.53;;;-0.48;100.00
69306;BME280;56427;51.580;4.656;2023-03-01T00:26:38;103128.63;;;-0.25;100.00
69306;BME280;56427;51.580;4.656;2023-03-01T00:29:04;103130.34;;;-0.21;100.00
69306;BME280;56427;51.580;4.656;2023-03-01T00:31:31;103124.41;;;-0.31;100.00
69306;BME280;56427;51.580;4.656;2023-03-01T00:33:59;103120.97;;;-0.51;100.00
69306;BME280;56427;51.580;4.656;2023-03-01T00:36:27;103119.28;;;-0.40;100.00
69306;BME280;56427;51.580;4.656;2023-03-01T00:38:53;103126.09;;;-0.47;100.00
69306;BME280;56427;51.580;4.656;2023-03-01T00:41:20;103126.94;;;-0.48;100.00
69306;BME280;56427;51.580;4.656;2023-03-01T00:43:48;103121.84;;;-0.45;100.00
69306;BME280;56427;51.580;4.656;2023-03-01T00:46:17;103112.50;;;-0.67;100.00
69306;BME280;56427;51.580;4.656;2023-03-01T00:48:43;103126.09;;;-0.64;100.00
69306;BME280;56427;51.580;4.656;2023-03-01T00:51:14;103112.47;;;-0.81;100.00
69306;BME280;56427;51.580;4.656;2023-03-01T00:53:39;103123.53;;;-0.31;100.00
69306;BME280;56427;51.580;4.656;2023-03-01T00:56:06;103123.53;;;-0.53;100.00
69306;BME280;56427;51.580;4.656;2023-03-01T00:58:32;103126.09;;;-0.65;100.00
69306;BME280;56427;51.580;4.656;2023-03-01T01:00:58;103115.88;;;-0.67;100.00
69306;BME280;56427;51.580;4.656;2023-03-01T01:03:24;103114.19;;;-0.59;100.00
69306;BME280;56427;51.580;4.656;2023-03-01T01:05:50;103115.88;;;-0.68;100.00
69306;BME280;56427;51.580;4.656;2023-03-01T01:08:16;103109.94;;;-0.69;100.00
69306;BME280;56427;51.580;4.656;2023-03-01T01:10:43;103103.97;;;-0.88;100.00
69306;BME280;56427;51.580;4.656;2023-03-01T01:13:09;103103.13;;;-0.79;100.00
69306;BME280;56427;51.580;4.656;2023-03-01T01:15:34;103106.53;;;-0.77;100.00
69306;BME280;56427;51.580;4.656;2023-03-01T01:18:00;103101.41;;;-0.69;100.00
69306;BME280;56427;51.580;4.656;2023-03-01T01:20:26;103098.88;;;-0.66;100.00
69306;BME280;56427;51.580;4.656;2023-03-01T01:22:51;103093.78;;;-0.80;100.00
69306;BME280;56427;51.580;4.656;2023-03-01T01:25:17;103092.94;;;-0.51;100.00
69306;BME280;56427;51.580;4.656;2023-03-01T01:27:42;103084.41;;;-0.60;100.00
69306;BME280;56427;51.580;4.656;2023-03-01T01:30:08;103085.28;;;-0.62;100.00
69306;BME280;56427;51.580;4.656;2023-03-01T01:32:34;103078.47;;;-0.63;100.00
69306;BME280;56427;51.580;4.656;2023-03-01T01:34:59;103074.25;;;-0.66;100.00
69306;BME280;56427;51.580;4.656;2023-03-01T01:37:25;103077.63;;;-0.68;100.00
69306;BME280;56427;51.580;4.656;2023-03-01T01:39:57;103074.25;;;-0.69;100.00
69306;BME280;56427;51.580;4.656;2023-03-01T01:42:23;103071.69;;;-0.66;100.00
69306;BME280;56427;51.580;4.656;2023-03-01T01:47:54;103060.63;;;-0.59;100.00
69306;BME280;56427;51.580;4.656;2023-03-01T01:50:21;103059.75;;;-0.51;100.00
69306;BME280;56427;51.580;4.656;2023-03-01T01:52:48;103051.28;;;-0.70;100.00
69306;BME280;56427;51.580;4.656;2023-03-01T01:55:19;103047.03;;;-0.64;100.00
69306;BME280;56427;51.580;4.656;2023-03-01T01:57:53;103033.44;;;-0.81;100.00
69306;BME280;56427;51.580;4.656;2023-03-01T02:00:26;103042.78;;;-0.86;100.00
69306;BME280;56427;51.580;4.656;2023-03-01T02:02:55;103042.78;;;-0.89;100.00
69306;BME280;56427;51.580;4.656;2023-03-01T02:05:31;103035.91;;;-1.34;100.00
69306;BME280;56427;51.580;4.656;2023-03-01T02:08:00;103041.84;;;-1.44;100.00
69306;BME280;56427;51.580;4.656;2023-03-01T02:10:26;103041.88;;;-1.38;100.00
69306;BME280;56427;51.580;4.656;2023-03-01T02:12:54;103041.91;;;-1.02;100.00
69306;BME280;56427;51.580;4.656;2023-03-01T02:15:22;103033.44;;;-1.00;100.00
69306;BME280;56427;51.580;4.656;2023-03-01T02:17:48;103035.09;;;-1.33;100.00
69306;BME280;56427;51.580;4.656;2023-03-01T02:20:26;103030.03;;;-1.09;100.00
69306;BME280;56427;51.580;4.656;2023-03-01T02:22:55;103033.38;;;-1.43;100.00
69306;BME280;56427;51.580;4.656;2023-03-01T02:25:59;103034.25;;;-1.18;100.00
69306;BME280;56427;51.580;4.656;2023-03-01T02:30:42;103033.44;;;-0.80;100.00
69306;BME280;56427;51.580;4.656;2023-03-01T02:33:29;103015.59;;;-0.90;100.00
69306;BME280;56427;51.580;4.656;2023-03-01T02:35:59;103026.63;;;-0.98;100.00
69306;BME280;56427;51.580;4.656;2023-03-01T02:38:25;103025.78;;;-1.00;100.00
69306;BME280;56427;51.580;4.656;2023-03-01T02:40:51;103018.97;;;-1.12;100.00
69306;BME280;56427;51.580;4.656;2023-03-01T02:43:19;103019.81;;;-0.93;100.00
69306;BME280;56427;51.580;4.656;2023-03-01T02:45:50;103024.06;;;-1.04;100.00
69306;BME280;56427;51.580;4.656;2023-03-01T02:48:16;103023.22;;;-1.06;100.00
69306;BME280;56427;51.580;4.656;2023-03-01T02:51:07;103027.47;;;-0.96;100.00
69306;BME280;56427;51.580;4.656;2023-03-01T02:56:20;103029.16;;;-1.05;100.00
69306;BME280;56427;51.580;4.656;2023-03-01T02:58:45;103033.41;;;-1.04;100.00
69306;BME280;56427;51.580;4.656;2023-03-01T03:01:13;103041.91;;;-1.05;100.00
69306;BME280;56427;51.580;4.656;2023-03-01T03:03:40;103030.84;;;-1.14;100.00
69306;BME280;56427;51.580;4.656;2023-03-01T03:06:06;103035.13;;;-0.97;100.00
69306;BME280;56427;51.580;4.656;2023-03-01T03:08:31;103028.31;;;-1.01;100.00
69306;BME280;56427;51.580;4.656;2023-03-01T03:10:57;103035.13;;;-1.13;100.00
69306;BME280;56427;51.580;4.656;2023-03-01T03:13:22;103031.72;;;-1.13;100.00
69306;BME280;56427;51.580;4.656;2023-03-01T03:15:54;103030.03;;;-1.08;100.00
69306;BME280;56427;51.580;4.656;2023-03-01T03:18:20;103024.91;;;-1.17;100.00
69306;BME280;56427;51.580;4.656;2023-03-01T03:20:46;103030.00;;;-1.30;100.00
69306;BME280;56427;51.580;4.656;2023-03-01T03:23:12;103024.06;;;-1.32;100.00
69306;BME280;56427;51.580;4.656;2023-03-01T03:25:38;103015.59;;;-1.15;100.00
69306;BME280;56427;51.580;4.656;2023-03-01T03:28:06;103009.59;;;-1.22;100.00
69306;BME280;56427;51.580;4.656;2023-03-01T03:30:37;103001.13;;;-1.27;100.00
69306;BME280;56427;51.580;4.656;2023-03-01T03:33:04;102991.78;;;-1.28;100.00
69306;BME280;56427;51.580;4.656;2023-03-01T03:35:38;103001.13;;;-1.27;100.00
69306;BME280;56427;51.580;4.656;2023-03-01T03:38:06;103001.97;;;-1.33;100.00
69306;BME280;56427;51.580;4.656;2023-03-01T03:40:41;103009.59;;;-1.33;100.00
69306;BME280;56427;51.580;4.656;2023-03-01T03:43:09;103002.78;;;-1.51;100.00
69306;BME280;56427;51.580;4.656;2023-03-01T03:45:35;102992.59;;;-1.38;100.00
69306;BME280;56427;51.580;4.656;2023-03-01T03:48:04;102990.94;;;-1.18;100.00
69306;BME280;56427;51.580;4.656;2023-03-01T03:50:30;102993.50;;;-1.32;100.00
69306;BME280;56427;51.580;4.656;2023-03-01T03:52:55;102996.88;;;-1.34;100.00
69306;BME280;56427;51.580;4.656;2023-03-01T03:55:20;102986.66;;;-1.37;100.00
69306;BME280;56427;51.580;4.656;2023-03-01T03:57:47;102993.47;;;-1.38;100.00
69306;BME280;56427;51.580;4.656;2023-03-01T04:00:19;102983.25;;;-1.53;100.00
69306;BME280;56427;51.580;4.656;2023-03-01T04:02:45;102991.78;;;-1.28;100.00
69306;BME280;56427;51.580;4.656;2023-03-01T04:05:13;102990.91;;;-1.56;100.00
69306;BME280;56427;51.580;4.656;2023-03-01T04:07:40;102990.94;;;-1.38;100.00
69306;BME280;56427;51.580;4.656;2023-03-01T04:10:09;102992.59;;;-1.54;100.00
69306;BME280;56427;51.580;4.656;2023-03-01T04:12:34;102987.47;;;-1.55;100.00
69306;BME280;56427;51.580;4.656;2023-03-01T04:15:01;102989.16;;;-1.73;100.00
69306;BME280;56427;51.580;4.656;2023-03-01T04:17:27;102981.53;;;-1.59;100.00
69306;BME280;56427;51.580;4.656;2023-03-01T04:19:52;102984.97;;;-1.49;100.00
69306;BME280;56427;51.580;4.656;2023-03-01T04:22:18;102985.78;;;-1.65;100.00
69306;BME280;56427;51.580;4.656;2023-03-01T04:24:44;102993.44;;;-1.45;100.00
69306;BME280;56427;51.580;4.656;2023-03-01T04:27:11;102992.63;;;-1.40;100.00
69306;BME280;56427;51.580;4.656;2023-03-01T04:29:36;102991.75;;;-1.45;100.00
69306;BME280;56427;51.580;4.656;2023-03-01T04:32:02;102987.50;;;-1.49;100.00
69306;BME280;56427;51.580;4.656;2023-03-01T04:34:28;102994.25;;;-1.74;100.00
69306;BME280;56427;51.580;4.656;2023-03-01T04:36:54;102995.13;;;-1.58;100.00
69306;BME280;56427;51.580;4.656;2023-03-01T04:39:19;102993.47;;;-1.28;100.00
69306;BME280;56427;51.580;4.656;2023-03-01T04:41:45;102989.97;;;-1.77;100.00
69306;BME280;56427;51.580;4.656;2023-03-01T04:44:10;102984.91;;;-1.60;100.00
69306;BME280;56427;51.580;4.656;2023-03-01T04:46:36;102982.38;;;-1.63;100.00
69306;BME280;56427;51.580;4.656;2023-03-01T04:49:02;102983.25;;;-1.47;100.00
69306;BME280;56427;51.580;4.656;2023-03-01T04:51:28;102973.88;;;-1.70;100.00
69306;BME280;56427;51.580;4.656;2023-03-01T04:53:54;102975.63;;;-1.56;100.00
69306;BME280;56427;51.580;4.656;2023-03-01T04:56:19;102971.38;;;-1.56;100.00
69306;BME280;56427;51.580;4.656;2023-03-01T04:58:45;102967.09;;;-1.66;100.00
69306;BME280;56427;51.580;4.656;2023-03-01T05:01:17;102961.13;;;-1.77;100.00
69306;BME280;56427;51.580;4.656;2023-03-01T05:03:47;102956.88;;;-1.81;100.00
69306;BME280;56427;51.580;4.656;2023-03-01T05:06:13;102953.44;;;-1.88;100.00
69306;BME280;56427;51.580;4.656;2023-03-01T05:08:40;102950.97;;;-1.67;100.00
69306;BME280;56427;51.580;4.656;2023-03-01T05:11:05;102943.34;;;-1.62;100.00
69306;BME280;56427;51.580;4.656;2023-03-01T05:13:34;102934.00;;;-1.60;100.00
69306;BME280;56427;51.580;4.656;2023-03-01T05:16:01;102926.38;;;-1.46;100.00
69306;BME280;56427;51.580;4.656;2023-03-01T05:18:28;102925.50;;;-1.70;100.00
69306;BME280;56427;51.580;4.656;2023-03-01T05:21:02;102920.38;;;-1.83;100.00
69306;BME280;56427;51.580;4.656;2023-03-01T05:23:29;102914.47;;;-1.73;100.00
69306;BME280;56427;51.580;4.656;2023-03-01T05:25:58;102923.78;;;-1.75;100.00
69306;BME280;56427;51.580;4.656;2023-03-01T05:28:24;102917.84;;;-1.79;100.00
69306;BME280;56427;51.580;4.656;2023-03-01T05:30:50;102922.97;;;-1.65;100.00
69306;BME280;56427;51.580;4.656;2023-03-01T05:33:17;102912.72;;;-1.91;100.00
69306;BME280;56427;51.580;4.656;2023-03-01T05:35:47;102912.75;;;-1.85;100.00
69306;BME280;56427;51.580;4.656;2023-03-01T05:38:14;102914.44;;;-1.84;100.00
69306;BME280;56427;51.580;4.656;2023-03-01T05:40:44;102912.72;;;-1.88;100.00
69306;BME280;56427;51.580;4.656;2023-03-01T05:43:11;102903.41;;;-1.94;100.00
69306;BME280;56427;51.580;4.656;2023-03-01T05:45:39;102909.31;;;-2.01;100.00
69306;BME280;56427;51.580;4.656;2023-03-01T05:48:06;102902.56;;;-1.85;100.00
69306;BME280;56427;51.580;4.656;2023-03-01T05:50:34;102897.53;;;-1.50;100.00
69306;BME280;56427;51.580;4.656;2023-03-01T05:53:26;102893.28;;;-1.66;100.00
69306;BME280;56427;51.580;4.656;2023-03-01T05:55:51;102895.78;;;-1.61;100.00
69306;BME280;56427;51.580;4.656;2023-03-01T05:58:19;102880.53;;;-1.71;100.00
69306;BME280;56427;51.580;4.656;2023-03-01T06:00:48;102882.22;;;-1.80;100.00
69306;BME280;56427;51.580;4.656;2023-03-01T06:03:15;102881.34;;;-1.75;100.00
69306;BME280;56427;51.580;4.656;2023-03-01T06:05:42;102881.38;;;-1.65;100.00
69306;BME280;56427;51.580;4.656;2023-03-01T06:08:09;102884.72;;;-1.93;100.00
69306;BME280;56427;51.580;4.656;2023-03-01T06:10:35;102884.69;;;-2.10;100.00
69306;BME280;56427;51.580;4.656;2023-03-01T06:13:00;102890.63;;;-2.03;100.00
69306;BME280;56427;51.580;4.656;2023-03-01T06:15:26;102891.47;;;-2.03;100.00
69306;BME280;56427;51.580;4.656;2023-03-01T06:17:53;102895.69;;;-2.11;100.00
69306;BME280;56427;51.580;4.656;2023-03-01T06:20:30;102893.19;;;-2.01;100.00
69306;BME280;56427;51.580;4.656;2023-03-01T06:22:56;102898.25;;;-2.06;100.00
69306;BME280;56427;51.580;4.656;2023-03-01T06:25:23;102901.59;;;-2.23;100.00
69306;BME280;56427;51.580;4.656;2023-03-01T06:27:52;102911.03;;;-1.86;100.00
69306;BME280;56427;51.580;4.656;2023-03-01T06:30:19;102908.53;;;-1.68;100.00
69306;BME280;56427;51.580;4.656;2023-03-01T06:32:44;102909.34;;;-1.78;100.00
69306;BME280;56427;51.580;4.656;2023-03-01T06:35:11;102907.69;;;-1.77;100.00
69306;BME280;56427;51.580;4.656;2023-03-01T06:37:38;102914.50;;;-1.62;100.00
69306;BME280;56427;51.580;4.656;2023-03-01T06:40:04;102911.91;;;-1.75;100.00
69306;BME280;56427;51.580;4.656;2023-03-01T06:42:34;102903.44;;;-1.68;100.00
69306;BME280;56427;51.580;4.656;2023-03-01T06:44:59;102913.59;;;-1.94;100.00
69306;BME280;56427;51.580;4.656;2023-03-01T06:47:25;102915.28;;;-1.87;100.00
69306;BME280;56427;51.580;4.656;2023-03-01T06:49:50;102917.00;;;-1.75;100.00
69306;BME280;56427;51.580;4.656;2023-03-01T06:52:15;102913.66;;;-1.32;100.00
69306;BME280;56427;51.580;4.656;2023-03-01T06:54:41;102921.28;;;-1.38;100.00
69306;BME280;56427;51.580;4.656;2023-03-01T06:57:06;102925.53;;;-1.20;100.00
69306;BME280;56427;51.580;4.656;2023-03-01T06:59:32;102925.50;;;-0.77;100.00
69306;BME280;56427;51.580;4.656;2023-03-01T07:01:57;102921.28;;;-1.06;100.00
69306;BME280;56427;51.580;4.656;2023-03-01T07:04:22;102912.75;;;-0.79;100.00
69306;BME280;56427;51.580;4.656;2023-03-01T07:06:48;102907.63;;;-0.69;100.00
69306;BME280;56427;51.580;4.656;2023-03-01T07:09:21;102914.97;;;0.06;100.00
69306;BME280;56427;51.580;4.656;2023-03-01T07:11:47;102917.09;;;0.69;100.00
69306;BME280;56427;51.580;4.656;2023-03-01T07:14:12;102908.72;;;0.52;100.00
69306;BME280;56427;51.580;4.656;2023-03-01T07:16:38;102912.59;;;0.98;100.00
69306;BME280;56427;51.580;4.656;2023-03-01T07:19:03;102911.00;;;0.86;100.00
69306;BME280;56427;51.580;4.656;2023-03-01T07:21:30;102907.69;;;0.71;100.00
69306;BME280;56427;51.580;4.656;2023-03-01T07:23:55;102895.91;;;0.53;100.00
69306;BME280;56427;51.580;4.656;2023-03-01T07:26:21;102907.97;;;0.36;100.00
69306;BME280;56427;51.580;4.656;2023-03-01T07:28:46;102897.63;;;0.56;100.00
69306;BME280;56427;51.580;4.656;2023-03-01T07:31:11;102899.72;;;1.07;100.00
69306;BME280;56427;51.580;4.656;2023-03-01T07:33:37;102890.69;;;1.50;100.00
69306;BME280;56427;51.580;4.656;2023-03-01T07:36:03;102892.72;;;1.93;100.00
69306;BME280;56427;51.580;4.656;2023-03-01T07:38:29;102887.00;;;2.34;100.00
69306;BME280;56427;51.580;4.656;2023-03-01T07:40:59;102892.44;;;2.67;100.00
69306;BME280;56427;51.580;4.656;2023-03-01T07:43:26;102888.22;;;3.13;100.00
69306;BME280;56427;51.580;4.656;2023-03-01T07:45:51;102900.09;;;2.70;100.00
69306;BME280;56427;51.580;4.656;2023-03-01T07:48:17;102892.34;;;2.73;100.00
69306;BME280;56427;51.580;4.656;2023-03-01T07:50:42;102902.97;;;3.00;99.32
69306;BME280;56427;51.580;4.656;2023-03-01T07:53:08;102909.09;;;3.40;96.44
69306;BME280;56427;51.580;4.656;2023-03-01T07:55:34;102902.88;;;3.50;94.67
69306;BME280;56427;51.580;4.656;2023-03-01T07:57:59;102915.06;;;3.82;92.81
69306;BME280;56427;51.580;4.656;2023-03-01T08:00:24;102917.06;;;4.09;91.59
69306;BME280;56427;51.580;4.656;2023-03-01T08:02:50;102924.03;;;4.03;91.23
69306;BME280;56427;51.580;4.656;2023-03-01T08:05:16;102925.66;;;4.08;90.95
69306;BME280;56427;51.580;4.656;2023-03-01T08:07:41;102929.84;;;3.71;92.59
69306;BME280;56427;51.580;4.656;2023-03-01T08:10:07;102922.16;;;4.84;89.31
69306;BME280;56427;51.580;4.656;2023-03-01T08:12:32;102923.06;;;4.81;84.42
69306;BME280;56427;51.580;4.656;2023-03-01T08:14:58;102923.16;;;4.42;86.64
69306;BME280;56427;51.580;4.656;2023-03-01T08:17:23;102921.09;;;4.91;84.92
69306;BME280;56427;51.580;4.656;2023-03-01T08:19:49;102919.69;;;4.79;84.75
69306;BME280;56427;51.580;4.656;2023-03-01T08:22:14;102926.69;;;5.07;82.84
69306;BME280;56427;51.580;4.656;2023-03-01T08:24:39;102914.91;;;4.98;82.16
69306;BME280;56427;51.580;4.656;2023-03-01T08:27:05;102918.28;;;4.67;81.40
69306;BME280;56427;51.580;4.656;2023-03-01T08:29:32;102914.56;;;4.43;81.96
69306;BME280;56427;51.580;4.656;2023-03-01T08:31:57;102909.66;;;4.68;85.36
69306;BME280;56427;51.580;4.656;2023-03-01T08:34:23;102921.97;;;4.90;81.96
69306;BME280;56427;51.580;4.656;2023-03-01T08:36:48;102921.41;;;4.78;82.48
69306;BME280;56427;51.580;4.656;2023-03-01T08:39:16;102906.34;;;5.29;82.21
69306;BME280;56427;51.580;4.656;2023-03-01T08:41:42;102902.03;;;5.29;82.71
69306;BME280;56427;51.580;4.656;2023-03-01T08:44:08;102908.38;;;5.79;78.46
69306;BME280;56427;51.580;4.656;2023-03-01T08:46:39;102898.44;;;5.05;79.93
69306;BME280;56427;51.580;4.656;2023-03-01T08:49:11;102902.88;;;4.66;78.77
69306;BME280;56427;51.580;4.656;2023-03-01T08:51:37;102902.25;;;4.90;82.07
69306;BME280;56427;51.580;4.656;2023-03-01T08:54:04;102896.19;;;4.58;79.85
69306;BME280;56427;51.580;4.656;2023-03-01T08:56:30;102899.66;;;4.92;78.54
69306;BME280;56427;51.580;4.656;2023-03-01T08:58:56;102900.50;;;4.91;77.49
69306;BME280;56427;51.580;4.656;2023-03-01T09:01:21;102888.53;;;4.55;76.19
69306;BME280;56427;51.580;4.656;2023-03-01T09:03:47;102892.09;;;4.51;76.33
69306;BME280;56427;51.580;4.656;2023-03-01T09:06:13;102879.13;;;4.20;76.72
69306;BME280;56427;51.580;4.656;2023-03-01T09:08:41;102877.06;;;3.98;76.29
69306;BME280;56427;51.580;4.656;2023-03-01T09:11:08;102877.56;;;4.49;76.55
69306;BME280;56427;51.580;4.656;2023-03-01T09:13:34;102868.44;;;4.71;75.78
69306;BME280;56427;51.580;4.656;2023-03-01T09:16:02;102862.41;;;5.05;75.57
69306;BME280;56427;51.580;4.656;2023-03-01T09:18:28;102862.25;;;5.41;73.66
69306;BME280;56427;51.580;4.656;2023-03-01T09:21:04;102859.97;;;5.60;69.65
69306;BME280;56427;51.580;4.656;2023-03-01T09:23:33;102860.63;;;5.95;68.25
69306;BME280;56427;51.580;4.656;2023-03-01T09:25:59;102856.44;;;6.46;67.10
69306;BME280;56427;51.580;4.656;2023-03-01T09:28:31;102857.91;;;5.43;64.29
69306;BME280;56427;51.580;4.656;2023-03-01T09:31:00;102844.91;;;5.76;65.96
69306;BME280;56427;51.580;4.656;2023-03-01T09:33:27;102849.00;;;6.10;64.44
69306;BME280;56427;51.580;4.656;2023-03-01T09:36:00;102837.28;;;6.01;65.16
69306;BME280;56427;51.580;4.656;2023-03-01T09:38:26;102836.78;;;6.43;63.64
69306;BME280;56427;51.580;4.656;2023-03-01T09:40:52;102832.44;;;5.62;63.20
69306;BME280;56427;51.580;4.656;2023-03-01T09:43:20;102832.09;;;5.45;62.81
69306;BME280;56427;51.580;4.656;2023-03-01T09:45:49;102828.63;;;5.46;64.75
69306;BME280;56427;51.580;4.656;2023-03-01T09:48:19;102825.47;;;5.66;63.15
69306;BME280;56427;51.580;4.656;2023-03-01T09:50:47;102824.44;;;6.00;64.18
69306;BME280;56427;51.580;4.656;2023-03-01T09:53:16;102823.56;;;6.01;62.77
69306;BME280;56427;51.580;4.656;2023-03-01T09:55:45;102814.78;;;5.78;64.14
69306;BME280;56427;51.580;4.656;2023-03-01T09:58:46;102819.66;;;6.41;62.86
69306;BME280;56427;51.580;4.656;2023-03-01T10:07:17;102810.25;;;5.58;63.77
69306;BME280;56427;51.580;4.656;2023-03-01T10:09:45;102806.44;;;5.70;64.18
69306;BME280;56427;51.580;4.656;2023-03-01T10:12:25;102815.47;;;6.12;63.74
69306;BME280;56427;51.580;4.656;2023-03-01T10:15:08;102809.97;;;5.38;62.59
69306;BME280;56427;51.580;4.656;2023-03-01T10:20:41;102823.00;;;6.18;61.87
69306;BME280;56427;51.580;4.656;2023-03-01T10:23:08;102814.81;;;6.05;61.89
69306;BME280;56427;51.580;4.656;2023-03-01T10:28:31;102810.06;;;5.64;65.37
69306;BME280;56427;51.580;4.656;2023-03-01T10:30:58;102803.53;;;5.52;65.11
69306;BME280;56427;51.580;4.656;2023-03-01T10:33:30;102794.78;;;5.30;65.19
69306;BME280;56427;51.580;4.656;2023-03-01T10:35:56;102791.97;;;5.08;65.78
69306;BME280;56427;51.580;4.656;2023-03-01T10:38:22;102797.31;;;5.31;66.81
69306;BME280;56427;51.580;4.656;2023-03-01T10:41:05;102796.28;;;5.37;64.81
69306;BME280;56427;51.580;4.656;2023-03-01T10:43:48;102805.69;;;5.08;64.56
69306;BME280;56427;51.580;4.656;2023-03-01T10:46:35;102794.78;;;5.00;64.70
69306;BME280;56427;51.580;4.656;2023-03-01T10:49:13;102793.28;;;4.91;65.03
69306;BME280;56427;51.580;4.656;2023-03-01T10:51:41;102785.97;;;5.07;64.60
69306;BME280;56427;51.580;4.656;2023-03-01T10:54:17;102781.72;;;5.06;66.45
69306;BME280;56427;51.580;4.656;2023-03-01T10:56:54;102787.88;;;5.30;65.57
69306;BME280;56427;51.580;4.656;2023-03-01T10:59:41;102773.75;;;5.15;63.85
69306;BME280;56427;51.580;4.656;2023-03-01T11:04:35;102764.63;;;5.33;64.66
69306;BME280;56427;51.580;4.656;2023-03-01T11:07:01;102757.06;;;5.56;64.59
69306;BME280;56427;51.580;4.656;2023-03-01T11:09:31;102755.53;;;5.22;63.29
69306;BME280;56427;51.580;4.656;2023-03-01T11:12:03;102752.25;;;4.87;63.97
69306;BME280;56427;51.580;4.656;2023-03-01T11:14:36;102757.00;;;5.01;63.89
69306;BME280;56427;51.580;4.656;2023-03-01T11:17:24;102750.41;;;5.22;64.49
69306;BME280;56427;51.580;4.656;2023-03-01T11:22:47;102740.53;;;5.06;62.77
69306;BME280;56427;51.580;4.656;2023-03-01T11:25:15;102736.78;;;5.46;62.02
69306;BME280;56427;51.580;4.656;2023-03-01T11:27:44;102733.38;;;5.16;60.37
69306;BME280;56427;51.580;4.656;2023-03-01T11:33:03;102736.94;;;5.12;60.64
69306;BME280;56427;51.580;4.656;2023-03-01T11:35:35;102730.03;;;5.14;61.53
69306;BME280;56427;51.580;4.656;2023-03-01T11:40:44;102725.97;;;5.35;62.70
69306;BME280;56427;51.580;4.656;2023-03-01T11:43:23;102722.22;;;5.72;63.94
69306;BME280;56427;51.580;4.656;2023-03-01T11:46:07;102720.13;;;6.10;62.11
69306;BME280;56427;51.580;4.656;2023-03-01T12:00:25;102730.59;;;6.31;58.93
69306;BME280;56427;51.580;4.656;2023-03-01T12:08:10;102720.03;;;6.13;60.26
69306;BME280;56427;51.580;4.656;2023-03-01T12:11:03;102723.63;;;6.09;61.54
69306;BME280;56427;51.580;4.656;2023-03-01T12:16:39;102703.19;;;6.03;60.87
69306;BME280;56427;51.580;4.656;2023-03-01T12:19:27;102724.88;;;6.22;59.99
69306;BME280;56427;51.580;4.656;2023-03-01T12:38:42;102697.25;;;6.01;60.39
69306;BME280;56427;51.580;4.656;2023-03-01T12:49:32;102664.28;;;6.11;60.32
69306;BME280;56427;51.580;4.656;2023-03-01T12:52:03;102666.13;;;6.54;59.61
69306;BME280;56427;51.580;4.656;2023-03-01T12:54:36;102653.53;;;5.98;58.77
69306;BME280;56427;51.580;4.656;2023-03-01T12:57:18;102658.34;;;6.08;59.05
69306;BME280;56427;51.580;4.656;2023-03-01T13:00:15;102654.19;;;5.78;57.65
69306;BME280;56427;51.580;4.656;2023-03-01T13:02:52;102632.09;;;5.97;57.68
69306;BME280;56427;51.580;4.656;2023-03-01T13:05:33;102637.16;;;5.74;57.01
69306;BME280;56427;51.580;4.656;2023-03-01T13:08:20;102634.66;;;5.97;58.59
69306;BME280;56427;51.580;4.656;2023-03-01T13:10:58;102621.91;;;6.18;59.04
69306;BME280;56427;51.580;4.656;2023-03-01T13:13:26;102617.41;;;6.23;57.90
69306;BME280;56427;51.580;4.656;2023-03-01T13:15:53;102617.94;;;6.33;58.13
69306;BME280;56427;51.580;4.656;2023-03-01T13:20:55;102610.63;;;6.44;55.67
69306;BME280;56427;51.580;4.656;2023-03-01T13:26:02;102621.78;;;6.21;54.82
69306;BME280;56427;51.580;4.656;2023-03-01T13:31:01;102606.66;;;6.12;55.17
69306;BME280;56427;51.580;4.656;2023-03-01T13:35:55;102615.19;;;6.37;55.33
69306;BME280;56427;51.580;4.656;2023-03-01T13:46:46;102601.03;;;6.71;54.42
69306;BME280;56427;51.580;4.656;2023-03-01T13:49:21;102602.28;;;6.37;54.08
69306;BME280;56427;51.580;4.656;2023-03-01T13:51:50;102592.13;;;6.33;55.73
69306;BME280;56427;51.580;4.656;2023-03-01T13:54:26;102593.72;;;6.82;56.04
69306;BME280;56427;51.580;4.656;2023-03-01T13:56:55;102593.13;;;6.52;54.58
69306;BME280;56427;51.580;4.656;2023-03-01T13:59:22;102587.69;;;6.60;54.42
69306;BME280;56427;51.580;4.656;2023-03-01T14:01:57;102590.81;;;6.90;55.50
69306;BME280;56427;51.580;4.656;2023-03-01T14:04:25;102586.66;;;6.64;54.79
69306;BME280;56427;51.580;4.656;2023-03-01T14:06:53;102580.72;;;6.84;54.98
69306;BME280;56427;51.580;4.656;2023-03-01T14:09:35;102573.16;;;6.57;54.33
69306;BME280;56427;51.580;4.656;2023-03-01T14:14:59;102550.91;;;6.55;53.72
69306;BME280;56427;51.580;4.656;2023-03-01T14:19:58;102554.84;;;6.86;53.52
69306;BME280;56427;51.580;4.656;2023-03-01T14:22:27;102542.81;;;6.64;52.73
69306;BME280;56427;51.580;4.656;2023-03-01T14:24:59;102541.84;;;6.67;53.33
69306;BME280;56427;51.580;4.656;2023-03-01T14:27:28;102517.06;;;6.85;55.02
69306;BME280;56427;51.580;4.656;2023-03-01T14:29:58;102524.63;;;7.10;54.46
69306;BME280;56427;51.580;4.656;2023-03-01T14:32:27;102515.63;;;6.55;54.26
69306;BME280;56427;51.580;4.656;2023-03-01T14:34:53;102513.06;;;6.33;54.50
69306;BME280;56427;51.580;4.656;2023-03-01T14:37:20;102522.88;;;6.68;54.58